Terminal Aerodrome Forecast
Issued by NWS Central Illinois

Home | Current Version | Previous Version | Text Only | Print | Product List | Glossary On
Versions: 1 2 3 4 5 6 7 8 9 10 11 12 13 14 15 16 17 18 19 20 21 22 23
000
FTUS43 KILX 251915 AAA
TAFSPI
TAF AMD
KSPI 251915Z 2519/2618 23012G18KT P6SM VCSH SCT050 SCT100
      TEMPO 2519/2521 BKN050
     FM252100 25010G17KT P6SM SHRA VCTS SCT040CB BKN090
     FM260200 29009KT P6SM -SHRA SCT040 OVC100
     FM260900 31008KT P6SM BKN120
     FM261400 29013G18KT P6SM SCT050=

USA.gov is the U.S. government's official web portal to all federal, state and local government web resources and services.